Terminal Aerodrome Forecast
Issued by NWS Blacksburg, VA

Home | Current Version | Previous Version | Text Only | Print | Product List | Glossary On
Versions: 1 2 3 4 5 6 7 8 9 10 11 12 13 14 15 16 17 18 19 20 21 22 23 24 25 26 27 28 29 30 31 32 33 34 35 36 37 38 39 40 41 42
000
FTUS41 KRNK 261924 AAA
TAFROA
TAF AMD
KROA 261924Z 2619/2718 VRB05KT P6SM OVC050
     FM270000 30003KT P6SM BKN060
     FM270500 VRB03KT 4SM -SNDZ BR OVC025
     FM271400 32010KT P6SM BKN040=

USA.gov is the U.S. government's official web portal to all federal, state and local government web resources and services.